Time;durP1;ratioP1;P1;durP2;ratioP2;P2;SDS_P1;SDS_P2;PMS_P1;PMS_P2;Temp;Humidity;BMP_temperature;BMP_pressure;BME280_temperature;BME280_humidity;BME280_pressure;Samples;Min_cycle;Max_cycle;Signal;HPM_P1;HPM_P2
2021/01/22 00:02:09;;;;;;;1.20;0.90;;;4.60;93.10;;;;;;5132459;28;20475;-83
2021/01/22 00:04:35;;;;;;;1.13;0.88;;;4.60;93.20;;;;;;5131599;28;20039;-83
2021/01/22 00:07:01;;;;;;;3.08;1.05;;;4.50;93.30;;;;;;5132129;27;20046;-83
2021/01/22 00:09:26;;;;;;;1.33;0.80;;;4.50;93.30;;;;;;5132191;28;20434;-83
2021/01/22 00:11:52;;;;;;;2.45;1.00;;;4.60;93.20;;;;;;5129872;28;20521;-83
2021/01/22 00:14:18;;;;;;;1.02;0.70;;;4.50;93.20;;;;;;5131147;28;20047;-83
2021/01/22 00:16:44;;;;;;;1.92;0.80;;;4.50;93.10;;;;;;5129819;28;20051;-83
2021/01/22 00:19:10;;;;;;;2.28;0.70;;;4.40;93.20;;;;;;5130944;28;20490;-83
2021/01/22 00:21:36;;;;;;;1.77;0.80;;;4.40;93.20;;;;;;5131153;28;20039;-82
2021/01/22 00:24:03;;;;;;;1.88;0.80;;;4.40;93.20;;;;;;5132173;27;20103;-83
2021/01/22 00:26:29;;;;;;;0.85;0.70;;;4.40;93.30;;;;;;5134859;27;20054;-80
2021/01/22 00:28:55;;;;;;;3.22;0.90;;;4.40;93.30;;;;;;5135255;27;20062;-81
2021/01/22 00:31:21;;;;;;;1.42;0.70;;;4.40;93.40;;;;;;5135243;27;20482;-80
2021/01/22 00:33:47;;;;;;;1.00;0.70;;;4.40;93.40;;;;;;5134567;27;20049;-80
2021/01/22 00:36:13;;;;;;;0.75;0.73;;;4.40;93.50;;;;;;5134697;27;20043;-80
2021/01/22 00:38:38;;;;;;;1.05;0.70;;;4.30;93.40;;;;;;5134917;27;20027;-80
2021/01/22 00:41:04;;;;;;;0.93;0.60;;;4.30;93.60;;;;;;5135863;27;20049;-80
2021/01/22 00:43:30;;;;;;;1.48;0.65;;;4.30;93.60;;;;;;5135773;27;20050;-80
2021/01/22 00:45:56;;;;;;;1.20;0.60;;;4.30;93.50;;;;;;5133658;27;20150;-80
2021/01/22 00:48:22;;;;;;;3.28;0.77;;;4.30;93.40;;;;;;5135455;27;20043;-80
2021/01/22 00:50:48;;;;;;;1.85;0.88;;;4.30;93.50;;;;;;5134371;27;20096;-80
2021/01/22 00:53:14;;;;;;;1.23;0.50;;;4.30;93.40;;;;;;5135510;27;20035;-80
2021/01/22 00:55:40;;;;;;;1.23;0.60;;;4.30;93.40;;;;;;5133071;27;20043;-80
2021/01/22 00:58:06;;;;;;;1.40;0.70;;;4.30;93.50;;;;;;5135613;27;20043;-80
2021/01/22 01:00:32;;;;;;;0.57;0.55;;;4.20;93.30;;;;;;5135328;27;20047;-80
2021/01/22 01:02:57;;;;;;;1.75;0.70;;;4.20;93.30;;;;;;5134478;27;20130;-80
2021/01/22 01:05:23;;;;;;;1.45;0.68;;;4.20;93.30;;;;;;5134267;27;20405;-83
2021/01/22 01:07:49;;;;;;;2.88;0.70;;;4.10;93.40;;;;;;5134180;27;20116;-83
2021/01/22 01:10:15;;;;;;;2.78;1.00;;;4.10;93.40;;;;;;5135280;27;20095;-82
2021/01/22 01:12:41;;;;;;;3.05;2.00;;;4.20;93.50;;;;;;5132459;27;20047;-81
2021/01/22 01:15:07;;;;;;;1.52;0.75;;;4.10;93.40;;;;;;5134813;27;20504;-81
2021/01/22 01:17:35;;;;;;;0.90;0.75;;;4.10;93.50;;;;;;5134815;27;20464;-80
2021/01/22 01:20:03;;;;;;;0.95;0.70;;;4.10;93.60;;;;;;5134600;27;20039;-81
2021/01/22 01:22:28;;;;;;;1.77;0.60;;;4.10;93.50;;;;;;5133857;27;20051;-81
2021/01/22 01:24:54;;;;;;;1.15;0.70;;;4.10;93.60;;;;;;5134250;27;20576;-81
2021/01/22 01:27:20;;;;;;;1.38;0.70;;;4.00;93.70;;;;;;5134819;27;20043;-81
2021/01/22 01:29:46;;;;;;;1.50;0.70;;;4.10;93.60;;;;;;5133807;27;20073;-81
2021/01/22 01:32:12;;;;;;;1.08;0.70;;;4.10;93.70;;;;;;5134463;27;20043;-81
2021/01/22 01:34:38;;;;;;;1.25;0.70;;;4.20;93.60;;;;;;5134315;27;20045;-79
2021/01/22 01:37:03;;;;;;;2.72;0.90;;;4.10;93.60;;;;;;5133765;27;20475;-81
2021/01/22 01:39:29;;;;;;;0.85;0.70;;;4.10;93.80;;;;;;5134452;27;20431;-81
2021/01/22 01:41:55;;;;;;;1.48;0.70;;;4.00;93.80;;;;;;5133783;27;20043;-81
2021/01/22 01:44:22;;;;;;;1.65;0.80;;;4.20;93.70;;;;;;5134594;27;20070;-81
2021/01/22 01:46:48;;;;;;;1.52;0.75;;;4.10;93.70;;;;;;5133581;27;20094;-80
2021/01/22 01:49:13;;;;;;;2.40;0.80;;;4.10;93.70;;;;;;5133354;27;20099;-81
2021/01/22 01:51:40;;;;;;;1.05;0.77;;;4.10;93.70;;;;;;5133565;27;20444;-80
2021/01/22 01:54:06;;;;;;;2.70;1.20;;;4.20;93.80;;;;;;5134411;27;20126;-81
2021/01/22 01:56:32;;;;;;;1.40;1.10;;;4.10;93.70;;;;;;5133150;27;20448;-81
2021/01/22 01:58:58;;;;;;;2.67;1.48;;;4.10;93.70;;;;;;5133607;27;20604;-81
2021/01/22 02:01:26;;;;;;;1.27;0.90;;;4.20;93.80;;;;;;5134107;27;20047;-81
2021/01/22 02:03:52;;;;;;;2.85;1.05;;;4.20;93.80;;;;;;5131975;27;20375;-80
2021/01/22 02:06:18;;;;;;;1.67;1.00;;;4.30;93.70;;;;;;5134157;27;20039;-81
2021/01/22 02:08:44;;;;;;;3.03;1.10;;;4.20;93.60;;;;;;5133243;27;20054;-81
2021/01/22 02:11:12;;;;;;;3.05;1.13;;;4.30;93.70;;;;;;5133606;27;20134;-81
2021/01/22 02:13:39;;;;;;;2.13;1.20;;;4.20;93.70;;;;;;5132761;27;20043;-81
2021/01/22 02:16:05;;;;;;;2.92;1.20;;;4.30;93.70;;;;;;5133138;27;20043;-81
2021/01/22 02:18:32;;;;;;;3.80;1.30;;;4.20;93.70;;;;;;5133620;27;20039;-81
2021/01/22 02:21:03;;;;;;;3.95;1.30;;;4.30;93.70;;;;;;5132917;27;20047;-81
2021/01/22 02:23:32;;;;;;;1.95;1.50;;;4.30;93.80;;;;;;5133703;27;20119;-81
2021/01/22 02:26:28;;;;;;;2.20;1.35;;;4.30;93.90;;;;;;5133061;27;20171;-81
2021/01/22 02:29:03;;;;;;;3.33;1.55;;;4.30;93.70;;;;;;5132920;27;20042;-81
2021/01/22 02:31:31;;;;;;;6.47;4.00;;;4.30;93.70;;;;;;5133041;27;20039;-81
2021/01/22 02:34:05;;;;;;;4.53;1.65;;;4.40;93.70;;;;;;5132490;27;20053;-81
2021/01/22 02:36:36;;;;;;;2.42;1.80;;;4.40;93.70;;;;;;5133558;27;20095;-80
2021/01/22 02:39:04;;;;;;;3.90;2.53;;;4.50;93.60;;;;;;5131403;27;20219;-81
2021/01/22 02:41:33;;;;;;;5.22;2.78;;;4.40;93.60;;;;;;5133483;27;20054;-81
2021/01/22 02:44:03;;;;;;;3.90;1.88;;;4.40;93.70;;;;;;5132646;27;20046;-81
2021/01/22 02:46:31;;;;;;;3.72;1.50;;;4.50;93.70;;;;;;5132425;27;20047;-81
2021/01/22 02:48:57;;;;;;;5.43;2.25;;;4.50;93.30;;;;;;5131548;27;20047;-81
2021/01/22 02:51:23;;;;;;;3.00;1.83;;;4.50;93.30;;;;;;5131518;27;20047;-81
2021/01/22 02:53:49;;;;;;;3.97;2.10;;;4.50;93.40;;;;;;5132180;27;20398;-81
2021/01/22 02:56:56;;;;;;;3.78;2.03;;;4.50;93.40;;;;;;5133314;27;20066;-81
2021/01/22 02:59:52;;;;;;;5.32;2.50;;;4.40;93.60;;;;;;5133369;27;20039;-81
2021/01/22 03:02:26;;;;;;;5.55;2.60;;;4.40;93.70;;;;;;5131957;27;20058;-81
2021/01/22 03:04:53;;;;;;;3.67;2.70;;;4.40;93.50;;;;;;5131967;27;20035;-80
2021/01/22 03:07:29;;;;;;;4.28;2.28;;;4.40;93.60;;;;;;5133132;27;20039;-81
2021/01/22 03:09:59;;;;;;;5.65;2.50;;;4.40;93.60;;;;;;5130484;27;20042;-81
2021/01/22 03:12:29;;;;;;;5.43;2.67;;;4.40;93.60;;;;;;5131067;27;20051;-81
2021/01/22 03:14:58;;;;;;;10.13;5.97;;;4.40;93.40;;;;;;5132212;27;20066;-81
2021/01/22 03:17:24;;;;;;;7.20;2.65;;;4.40;93.40;;;;;;5132633;27;20060;-80
2021/01/22 03:19:50;;;;;;;4.90;2.10;;;4.30;93.30;;;;;;5131591;27;20552;-81
2021/01/22 03:22:16;;;;;;;5.60;2.60;;;4.40;93.40;;;;;;5131662;27;20096;-81
2021/01/22 03:24:42;;;;;;;4.28;1.92;;;4.30;93.40;;;;;;5132825;27;20047;-81
2021/01/22 03:27:09;;;;;;;4.30;2.00;;;4.40;93.30;;;;;;5131762;27;20051;-81
2021/01/22 03:29:36;;;;;;;4.10;1.90;;;4.50;93.10;;;;;;5132790;27;20043;-81
2021/01/22 03:32:03;;;;;;;4.28;1.70;;;4.50;93.00;;;;;;5131870;28;20070;-81
2021/01/22 03:34:30;;;;;;;3.92;1.52;;;4.40;93.10;;;;;;5131071;28;20054;-81
2021/01/22 03:36:57;;;;;;;3.53;1.40;;;4.30;93.30;;;;;;5131443;28;20051;-81
2021/01/22 03:39:23;;;;;;;4.20;1.40;;;4.40;93.10;;;;;;5132376;28;20481;-81
2021/01/22 03:41:49;;;;;;;2.65;1.50;;;4.30;93.20;;;;;;5131237;28;20035;-79
2021/01/22 03:44:16;;;;;;;3.00;1.02;;;4.40;93.20;;;;;;5132535;27;20039;-81
2021/01/22 03:46:46;;;;;;;2.47;1.20;;;4.40;93.10;;;;;;5131489;28;20073;-81
2021/01/22 03:49:12;;;;;;;4.60;1.10;;;4.40;93.00;;;;;;5131169;28;20067;-81
2021/01/22 03:51:38;;;;;;;2.78;1.00;;;4.40;92.90;;;;;;5131207;28;20081;-81
2021/01/22 03:54:05;;;;;;;2.67;1.10;;;4.40;92.80;;;;;;5131340;28;20046;-81
2021/01/22 03:56:31;;;;;;;4.00;1.30;;;4.40;92.90;;;;;;5132551;27;20395;-81
2021/01/22 03:58:57;;;;;;;4.38;1.23;;;4.40;93.00;;;;;;5131233;27;20126;-81
2021/01/22 04:01:23;;;;;;;3.85;1.25;;;4.30;93.10;;;;;;5136667;27;20431;-82
2021/01/22 04:03:49;;;;;;;4.35;1.30;;;4.30;93.10;;;;;;5135825;27;20063;-81
2021/01/22 04:06:16;;;;;;;4.53;1.30;;;4.30;92.90;;;;;;5136258;27;20047;-82
2021/01/22 04:08:42;;;;;;;3.95;1.48;;;4.30;93.10;;;;;;5134840;27;20074;-82
2021/01/22 04:11:08;;;;;;;3.75;1.42;;;4.20;93.20;;;;;;5135056;27;20686;-82
2021/01/22 04:13:34;;;;;;;4.18;1.73;;;4.30;93.30;;;;;;5135023;27;20138;-82
2021/01/22 04:16:02;;;;;;;2.90;1.15;;;4.20;93.20;;;;;;5135523;27;20031;-82
2021/01/22 04:18:28;;;;;;;4.18;1.48;;;4.20;93.30;;;;;;5134681;27;20043;-82
2021/01/22 04:20:54;;;;;;;4.80;1.50;;;4.20;93.30;;;;;;5135170;27;20121;-82
2021/01/22 04:23:20;;;;;;;3.70;1.52;;;4.20;93.30;;;;;;5134890;27;20073;-82
2021/01/22 04:25:47;;;;;;;7.95;1.88;;;4.10;93.60;;;;;;5136249;27;20692;-83
2021/01/22 04:28:13;;;;;;;4.63;2.03;;;4.00;93.70;;;;;;5135253;27;20119;-82
2021/01/22 04:30:38;;;;;;;7.32;2.13;;;4.00;93.80;;;;;;5136022;27;20470;-82
2021/01/22 04:33:05;;;;;;;6.93;2.30;;;3.90;93.80;;;;;;5133509;27;20167;-82
2021/01/22 04:35:32;;;;;;;5.70;2.83;;;4.00;94.00;;;;;;5134937;27;20031;-83
2021/01/22 04:37:58;;;;;;;8.82;3.58;;;4.00;94.00;;;;;;5134743;27;20081;-82
2021/01/22 04:40:27;;;;;;;10.63;4.03;;;4.00;93.90;;;;;;5135076;27;20079;-82
2021/01/22 04:42:53;;;;;;;11.80;4.00;;;4.00;94.00;;;;;;5135072;27;20043;-81
2021/01/22 04:45:19;;;;;;;6.35;2.90;;;3.90;94.00;;;;;;5135614;27;20103;-82
2021/01/22 04:47:45;;;;;;;18.33;10.10;;;4.00;94.00;;;;;;5134537;27;20043;-82
2021/01/22 04:50:13;;;;;;;9.45;3.05;;;4.10;93.90;;;;;;5134869;27;20190;-82
2021/01/22 04:52:39;;;;;;;11.07;3.92;;;4.10;93.80;;;;;;5135656;27;20042;-82
2021/01/22 04:55:07;;;;;;;9.25;3.15;;;4.20;93.60;;;;;;5134670;27;20543;-82
2021/01/22 04:57:37;;;;;;;6.88;2.72;;;4.20;93.60;;;;;;5135353;27;20091;-82
2021/01/22 05:00:04;;;;;;;7.30;2.58;;;4.20;93.60;;;;;;5134866;27;20049;-82
2021/01/22 05:02:31;;;;;;;8.50;2.35;;;4.10;93.70;;;;;;5134113;27;20084;-83
2021/01/22 05:04:58;;;;;;;6.65;2.55;;;4.20;93.70;;;;;;5132982;27;20046;-82
2021/01/22 05:07:24;;;;;;;7.75;2.42;;;4.20;93.70;;;;;;5135128;27;20047;-82
2021/01/22 05:09:50;;;;;;;8.43;2.20;;;4.30;93.60;;;;;;5133524;27;20038;-82
2021/01/22 05:12:16;;;;;;;9.38;2.33;;;4.20;93.70;;;;;;5131846;27;20313;-82
2021/01/22 05:14:42;;;;;;;9.48;2.45;;;4.20;93.70;;;;;;5133988;27;20592;-82
2021/01/22 05:17:10;;;;;;;12.65;2.55;;;4.20;93.60;;;;;;5134132;27;20122;-83
2021/01/22 05:19:43;;;;;;;8.27;2.60;;;4.10;93.70;;;;;;5133313;27;20043;-82
2021/01/22 05:22:14;;;;;;;8.10;2.22;;;4.10;93.70;;;;;;5132431;27;20556;-83
2021/01/22 05:24:41;;;;;;;5.68;2.15;;;4.00;93.70;;;;;;5134722;27;20497;-83
2021/01/22 05:27:14;;;;;;;9.80;3.33;;;4.10;93.70;;;;;;5133078;27;20051;-83
2021/01/22 05:29:43;;;;;;;10.10;2.42;;;4.20;93.20;;;;;;5134873;27;20386;-83
2021/01/22 05:32:26;;;;;;;8.75;2.33;;;4.20;93.30;;;;;;5134081;27;20475;-83
2021/01/22 05:34:53;;;;;;;6.57;2.20;;;4.20;93.30;;;;;;5133128;27;20068;-83
2021/01/22 05:37:20;;;;;;;8.02;2.17;;;4.10;93.50;;;;;;5132914;27;20049;-83
2021/01/22 05:39:56;;;;;;;10.43;2.08;;;4.10;93.40;;;;;;5134033;27;20038;-83
2021/01/22 05:42:22;;;;;;;8.00;1.88;;;4.20;93.20;;;;;;5134424;27;20077;-82
2021/01/22 05:44:55;;;;;;;4.88;1.73;;;4.10;93.10;;;;;;5133390;27;20078;-83
2021/01/22 05:47:21;;;;;;;8.50;2.53;;;4.20;93.10;;;;;;5134092;27;20036;-82
2021/01/22 05:49:56;;;;;;;12.65;2.83;;;4.10;93.10;;;;;;5134467;27;20051;-83
2021/01/22 05:52:25;;;;;;;8.98;2.65;;;4.10;93.20;;;;;;5133929;27;20680;-82
2021/01/22 05:54:51;;;;;;;9.00;2.60;;;4.10;93.30;;;;;;5134391;27;20126;-82
2021/01/22 05:57:17;;;;;;;10.88;3.03;;;4.10;93.30;;;;;;5132096;27;20175;-83
2021/01/22 05:59:44;;;;;;;12.27;5.47;;;4.00;93.40;;;;;;5134333;27;20039;-82
2021/01/22 06:02:26;;;;;;;8.60;2.35;;;4.10;93.30;;;;;;5133436;27;20035;-83
2021/01/22 06:05:07;;;;;;;10.95;2.47;;;4.10;93.10;;;;;;5134238;27;20042;-83
2021/01/22 06:07:39;;;;;;;9.90;2.40;;;4.10;93.20;;;;;;5133046;27;20046;-83
2021/01/22 06:10:22;;;;;;;11.40;3.25;;;4.20;93.20;;;;;;5131484;27;20504;-82
2021/01/22 06:12:53;;;;;;;9.68;2.33;;;4.10;93.20;;;;;;5167015;27;20058;-82
2021/01/22 06:15:23;;;;;;;11.23;2.35;;;4.10;93.20;;;;;;5114494;27;20529;-83
2021/01/22 06:17:51;;;;;;;10.52;2.30;;;4.20;93.00;;;;;;5133618;27;20114;-82
2021/01/22 06:20:22;;;;;;;12.05;2.47;;;4.10;93.00;;;;;;5133023;27;20043;-83
2021/01/22 06:22:53;;;;;;;8.60;2.47;;;4.10;93.00;;;;;;5132693;27;20189;-84
2021/01/22 06:25:19;;;;;;;10.93;2.35;;;4.10;93.00;;;;;;5132644;27;20069;-83
2021/01/22 06:27:47;;;;;;;9.70;2.42;;;4.10;92.90;;;;;;5133543;27;20445;-85
2021/01/22 06:30:13;;;;;;;10.20;2.60;;;4.20;92.90;;;;;;5132864;27;20066;-83
2021/01/22 06:32:40;;;;;;;10.43;3.22;;;4.10;93.00;;;;;;5131665;27;20035;-82
2021/01/22 06:35:07;;;;;;;10.38;3.25;;;4.00;93.10;;;;;;5131307;27;20039;-82
2021/01/22 06:37:35;;;;;;;9.57;2.78;;;4.00;93.20;;;;;;5132161;27;20049;-82
2021/01/22 06:40:05;;;;;;;12.32;3.25;;;4.20;93.00;;;;;;5132772;27;20045;-81
2021/01/22 06:42:38;;;;;;;8.63;2.22;;;4.10;93.10;;;;;;5133108;27;20039;-82
2021/01/22 06:45:05;;;;;;;12.82;2.55;;;4.10;93.10;;;;;;5132367;27;20506;-81
2021/01/22 06:47:32;;;;;;;15.82;3.20;;;4.20;93.00;;;;;;5132052;27;20043;-82
2021/01/22 06:49:58;;;;;;;15.15;3.08;;;4.30;92.80;;;;;;5133081;27;20046;-82
2021/01/22 06:52:24;;;;;;;10.50;2.30;;;4.40;92.80;;;;;;5132388;27;20164;-82
2021/01/22 06:54:56;;;;;;;9.02;2.13;;;4.40;92.80;;;;;;5133184;27;20587;-82
2021/01/22 06:57:22;;;;;;;9.30;1.88;;;4.40;92.70;;;;;;5129539;27;20031;-82
2021/01/22 06:59:48;;;;;;;15.15;2.75;;;4.40;92.50;;;;;;5132108;27;20484;-82
2021/01/22 07:02:32;;;;;;;9.27;2.20;;;4.40;92.60;;;;;;5130592;27;20130;-83
2021/01/22 07:04:58;;;;;;;9.45;2.63;;;4.50;92.50;;;;;;5131643;27;20047;-83
2021/01/22 07:07:47;;;;;;;8.57;2.60;;;4.40;92.60;;;;;;5113708;27;20659;-82
2021/01/22 07:10:13;;;;;;;10.65;2.67;;;4.30;92.80;;;;;;5130000;27;20039;-83
2021/01/22 07:12:45;;;;;;;11.32;2.83;;;4.30;92.70;;;;;;5130303;27;20062;-81
2021/01/22 07:15:21;;;;;;;8.63;2.50;;;4.30;92.60;;;;;;5130836;27;20035;-80
2021/01/22 07:17:54;;;;;;;9.48;2.95;;;4.40;92.60;;;;;;5133122;27;20031;-81
2021/01/22 07:20:20;;;;;;;11.38;2.72;;;4.30;92.70;;;;;;5131474;27;20047;-81
2021/01/22 07:23:01;;;;;;;11.55;3.00;;;4.30;92.80;;;;;;5132361;27;20497;-81
2021/01/22 07:25:37;;;;;;;12.75;2.97;;;4.30;92.80;;;;;;5131708;27;20497;-81
2021/01/22 07:28:12;;;;;;;13.85;3.85;;;4.30;92.90;;;;;;5132835;27;20042;-81
2021/01/22 07:30:39;;;;;;;8.15;2.97;;;4.30;92.80;;;;;;5132434;27;20065;-80
2021/01/22 07:33:27;;;;;;;10.35;3.08;;;4.40;92.70;;;;;;5130340;28;20107;-80
2021/01/22 07:36:11;;;;;;;11.25;2.80;;;4.30;92.80;;;;;;5132153;28;20125;-81
2021/01/22 07:38:39;;;;;;;13.00;2.80;;;4.30;92.90;;;;;;5132677;27;20053;-81
2021/01/22 07:41:06;;;;;;;22.33;10.15;;;4.30;92.80;;;;;;5132091;27;20043;-80
2021/01/22 07:43:32;;;;;;;23.30;10.85;;;4.30;92.70;;;;;;5130903;28;20043;-81
2021/01/22 07:46:13;;;;;;;42.15;25.65;;;4.40;92.50;;;;;;5130945;28;20509;-81
2021/01/22 07:48:40;;;;;;;25.80;14.15;;;4.40;92.60;;;;;;5127340;28;20501;-81
2021/01/22 07:51:32;;;;;;;11.85;3.42;;;4.50;92.40;;;;;;5131942;28;20117;-81
2021/01/22 07:53:58;;;;;;;14.55;3.65;;;4.40;92.40;;;;;;5120156;27;20046;-81
2021/01/22 07:56:41;;;;;;;9.18;2.55;;;4.40;92.40;;;;;;5110946;28;20040;-81
2021/01/22 07:59:09;;;;;;;11.13;2.92;;;4.40;92.10;;;;;;5111510;28;20043;-81
2021/01/22 08:01:38;;;;;;;7.90;2.60;;;4.50;91.90;;;;;;5110667;28;20046;-81
2021/01/22 08:04:04;;;;;;;9.00;2.60;;;4.50;91.80;;;;;;5110595;28;20043;-82
2021/01/22 08:06:50;;;;;;;12.18;3.28;;;4.50;91.70;;;;;;5127365;28;20491;-81
2021/01/22 08:09:19;;;;;;;10.75;3.22;;;4.50;91.70;;;;;;5131559;27;20057;-81
2021/01/22 08:11:48;;;;;;;12.35;3.05;;;4.50;91.70;;;;;;5112062;28;20131;-81
2021/01/22 08:14:28;;;;;;;14.32;4.68;;;4.50;91.70;;;;;;5129138;28;20115;-84
2021/01/22 08:16:54;;;;;;;18.27;4.05;;;4.50;91.70;;;;;;5131197;28;20045;-84
2021/01/22 08:19:27;;;;;;;18.33;3.28;;;4.50;91.80;;;;;;5131144;27;20122;-85
2021/01/22 08:21:53;;;;;;;17.45;3.22;;;4.50;91.80;;;;;;5130940;28;20043;-82
2021/01/22 08:24:20;;;;;;;12.02;4.38;;;4.50;91.80;;;;;;5130314;28;20552;-83
2021/01/22 08:26:58;;;;;;;15.52;5.05;;;4.40;91.90;;;;;;5131938;27;20055;-83
2021/01/22 08:29:26;;;;;;;11.77;3.70;;;4.50;91.90;;;;;;5131459;27;20043;-83
2021/01/22 08:31:53;;;;;;;11.93;3.38;;;4.50;91.90;;;;;;5130857;28;20163;-85
2021/01/22 08:34:20;;;;;;;11.98;3.80;;;4.40;91.90;;;;;;5130223;28;20139;-86
2021/01/22 08:36:46;;;;;;;10.48;3.78;;;4.40;92.00;;;;;;5130670;28;20075;-85
2021/01/22 08:39:13;;;;;;;16.52;8.50;;;4.40;92.00;;;;;;5130255;28;20118;-84
2021/01/22 08:41:39;;;;;;;13.73;5.47;;;4.40;91.90;;;;;;5131890;28;20115;-86
2021/01/22 08:44:05;;;;;;;15.25;4.88;;;4.40;91.90;;;;;;5130218;28;20062;-85
2021/01/22 08:46:31;;;;;;;17.35;5.95;;;4.50;91.90;;;;;;5131713;27;20035;-85
2021/01/22 08:48:57;;;;;;;12.68;4.38;;;4.70;91.40;;;;;;5135456;27;20051;-83
2021/01/22 08:51:30;;;;;;;15.10;4.53;;;4.80;91.40;;;;;;5132988;27;20553;-85
2021/01/22 08:53:57;;;;;;;11.88;3.53;;;4.90;91.30;;;;;;5134383;27;20065;-85
2021/01/22 08:56:23;;;;;;;10.48;3.20;;;5.00;91.30;;;;;;5134673;27;20035;-85
2021/01/22 08:59:03;;;;;;;12.20;3.88;;;4.90;91.30;;;;;;5135450;27;20070;-85
2021/01/22 09:01:49;;;;;;;10.10;3.47;;;5.00;91.20;;;;;;5132932;27;20093;-85
2021/01/22 09:04:24;;;;;;;12.85;3.20;;;4.90;90.90;;;;;;5133200;27;20475;-83
2021/01/22 09:06:52;;;;;;;13.55;3.08;;;4.90;91.00;;;;;;5135214;27;20471;-84
2021/01/22 09:09:38;;;;;;;11.52;3.30;;;4.90;91.30;;;;;;5133946;27;20379;-81
2021/01/22 09:12:27;;;;;;;11.55;2.95;;;4.80;91.40;;;;;;5133357;27;20105;-81
2021/01/22 09:15:13;;;;;;;10.70;2.63;;;4.90;91.40;;;;;;5133981;27;20055;-81
2021/01/22 09:17:44;;;;;;;14.88;2.92;;;4.80;91.50;;;;;;5134793;27;20040;-81
2021/01/22 09:20:18;;;;;;;11.20;2.65;;;5.00;91.50;;;;;;5130485;27;20086;-80
2021/01/22 09:22:46;;;;;;;12.98;3.33;;;5.10;91.30;;;;;;5145717;27;20057;-81
2021/01/22 09:25:15;;;;;;;11.80;3.58;;;5.20;90.90;;;;;;5128560;27;20031;-81
2021/01/22 09:27:42;;;;;;;14.88;3.80;;;5.40;90.40;;;;;;5112739;28;20092;-81
2021/01/22 09:30:14;;;;;;;12.55;3.75;;;5.40;90.50;;;;;;5120810;27;20070;-81
2021/01/22 09:32:45;;;;;;;16.45;3.13;;;5.60;90.10;;;;;;5126910;27;20058;-81
2021/01/22 09:35:11;;;;;;;10.80;3.00;;;5.60;89.60;;;;;;5114125;28;20043;-81
2021/01/22 09:37:37;;;;;;;12.98;2.88;;;5.70;89.70;;;;;;5116313;27;20123;-81
2021/01/22 09:40:05;;;;;;;13.20;3.47;;;5.90;88.50;;;;;;5133389;27;20046;-81
2021/01/22 09:42:31;;;;;;;10.52;3.33;;;5.90;87.70;;;;;;5133623;27;20031;-81
2021/01/22 09:44:57;;;;;;;10.10;2.85;;;6.00;88.20;;;;;;5132926;27;20130;-81
2021/01/22 09:47:23;;;;;;;12.00;2.88;;;6.00;87.70;;;;;;5132330;27;20131;-81
2021/01/22 09:49:49;;;;;;;9.18;2.80;;;6.10;87.00;;;;;;5125598;27;20036;-81
2021/01/22 09:52:15;;;;;;;10.77;3.05;;;6.20;87.00;;;;;;5167405;27;20530;-83
2021/01/22 09:54:45;;;;;;;10.90;2.50;;;6.30;86.20;;;;;;5132480;27;20074;-81
2021/01/22 09:57:11;;;;;;;16.98;3.25;;;6.30;86.30;;;;;;5132689;27;20047;-82
2021/01/22 09:59:37;;;;;;;10.02;2.72;;;6.30;86.60;;;;;;5133402;27;20091;-82
2021/01/22 10:02:04;;;;;;;16.05;4.15;;;6.30;86.70;;;;;;5132672;27;20043;-81
2021/01/22 10:04:29;;;;;;;9.93;2.40;;;6.50;86.60;;;;;;5131871;27;20042;-83
2021/01/22 10:06:55;;;;;;;11.50;3.10;;;6.50;85.90;;;;;;5132804;27;20505;-83
2021/01/22 10:09:21;;;;;;;15.65;3.75;;;6.70;85.50;;;;;;5123466;27;20047;-82
2021/01/22 10:11:47;;;;;;;12.65;3.33;;;6.70;85.80;;;;;;5113100;27;20054;-82
2021/01/22 10:14:13;;;;;;;11.93;2.90;;;6.70;85.00;;;;;;5120932;27;20050;-81
2021/01/22 10:16:39;;;;;;;15.93;4.00;;;6.70;85.30;;;;;;5132824;27;20702;-81
2021/01/22 10:19:05;;;;;;;11.45;3.30;;;6.60;84.90;;;;;;5132126;27;20047;-81
2021/01/22 10:21:31;;;;;;;12.27;2.90;;;6.70;84.80;;;;;;5131759;27;20043;-81
2021/01/22 10:23:57;;;;;;;14.55;3.25;;;6.80;84.50;;;;;;5130301;27;20042;-81
2021/01/22 10:26:24;;;;;;;12.25;3.90;;;6.90;83.20;;;;;;5112307;28;20051;-82
2021/01/22 10:28:50;;;;;;;10.13;3.55;;;7.00;83.20;;;;;;5146011;27;20051;-81
2021/01/22 10:31:17;;;;;;;14.60;3.63;;;7.00;83.70;;;;;;5112804;28;20044;-81
2021/01/22 10:33:43;;;;;;;12.32;3.70;;;6.90;83.10;;;;;;5111427;28;20364;-81
2021/01/22 10:36:09;;;;;;;12.80;3.35;;;6.90;83.00;;;;;;5111938;28;20048;-81
2021/01/22 10:38:35;;;;;;;12.10;2.75;;;6.90;83.60;;;;;;5145160;27;20071;-81
2021/01/22 10:41:03;;;;;;;11.18;3.47;;;6.90;83.30;;;;;;5114559;27;20474;-81
2021/01/22 10:43:29;;;;;;;12.45;2.97;;;6.90;83.90;;;;;;5132249;27;20042;-82
2021/01/22 10:45:56;;;;;;;16.38;3.63;;;6.90;83.80;;;;;;5132665;27;20386;-81
2021/01/22 10:48:22;;;;;;;17.55;6.30;;;7.00;83.40;;;;;;5130780;27;20134;-82
2021/01/22 10:50:50;;;;;;;16.00;4.38;;;7.00;82.10;;;;;;5133234;27;20047;-81
2021/01/22 10:53:20;;;;;;;14.27;3.42;;;7.00;83.40;;;;;;5133244;27;20058;-81
2021/01/22 10:55:46;;;;;;;13.65;3.58;;;7.00;82.60;;;;;;5131352;27;20050;-81
2021/01/22 10:58:12;;;;;;;10.60;3.22;;;7.10;82.50;;;;;;5132537;27;20043;-81
2021/01/22 11:00:39;;;;;;;9.00;2.72;;;7.20;81.80;;;;;;5131182;27;20233;-80
2021/01/22 11:03:05;;;;;;;13.18;3.17;;;7.20;81.90;;;;;;5132971;27;20066;-85
2021/01/22 11:05:31;;;;;;;12.40;2.63;;;7.30;81.00;;;;;;5126604;27;20118;-80
2021/01/22 11:07:57;;;;;;;8.00;2.95;;;7.30;79.80;;;;;;5133070;27;20039;-80
2021/01/22 11:10:24;;;;;;;9.23;3.08;;;7.10;81.80;;;;;;5131240;27;20100;-81
2021/01/22 11:12:50;;;;;;;14.82;4.13;;;7.00;82.10;;;;;;5131149;27;20071;-80
2021/01/22 11:15:16;;;;;;;14.48;3.63;;;7.10;81.90;;;;;;5131448;27;20079;-80
2021/01/22 11:17:42;;;;;;;10.05;2.63;;;7.00;82.60;;;;;;5130770;27;20107;-80
2021/01/22 11:20:09;;;;;;;9.20;2.65;;;7.00;82.20;;;;;;5132493;27;20043;-80
2021/01/22 11:22:35;;;;;;;13.85;3.47;;;7.00;82.00;;;;;;5130807;27;20035;-81
2021/01/22 11:25:02;;;;;;;12.20;3.67;;;7.10;81.60;;;;;;5132196;27;20043;-80
2021/01/22 11:27:28;;;;;;;13.23;3.30;;;7.10;82.40;;;;;;5131142;27;20142;-81
2021/01/22 11:29:54;;;;;;;14.57;3.65;;;7.20;82.40;;;;;;5132552;27;20122;-81
2021/01/22 11:32:20;;;;;;;14.90;4.47;;;7.30;80.60;;;;;;5131244;27;20165;-80
2021/01/22 11:34:46;;;;;;;16.83;4.53;;;7.30;80.50;;;;;;5131927;27;20486;-80
2021/01/22 11:37:12;;;;;;;10.75;3.15;;;7.40;79.90;;;;;;5131549;28;20039;-81
2021/01/22 11:39:38;;;;;;;15.60;5.50;;;7.40;78.90;;;;;;5122103;27;20039;-80
2021/01/22 11:42:06;;;;;;;9.90;2.67;;;7.30;79.40;;;;;;5122115;28;20115;-80
2021/01/22 11:44:32;;;;;;;16.08;3.50;;;7.40;78.10;;;;;;5109790;28;20050;-80
2021/01/22 11:46:58;;;;;;;14.93;4.22;;;7.30;79.20;;;;;;5124630;28;20491;-80
2021/01/22 11:49:24;;;;;;;14.43;3.85;;;7.30;79.40;;;;;;5130476;28;20043;-81
2021/01/22 11:51:50;;;;;;;13.27;4.25;;;7.30;79.20;;;;;;5130339;28;20437;-80
2021/01/22 11:54:16;;;;;;;10.65;2.15;;;7.30;76.90;;;;;;5132466;27;20067;-80
2021/01/22 11:56:42;;;;;;;12.40;2.60;;;7.50;74.40;;;;;;5129889;28;20118;-80
2021/01/22 11:59:08;;;;;;;10.85;2.30;;;7.40;74.20;;;;;;5132246;28;20096;-80
2021/01/22 12:01:35;;;;;;;13.25;3.05;;;7.30;73.80;;;;;;5131300;27;20039;-80
2021/01/22 12:04:01;;;;;;;11.30;2.28;;;7.30;74.60;;;;;;5131817;27;20047;-80
2021/01/22 12:06:27;;;;;;;13.18;2.53;;;7.30;74.10;;;;;;5130314;28;20566;-81
2021/01/22 12:08:53;;;;;;;11.00;2.65;;;7.20;75.00;;;;;;5130680;28;20483;-80
2021/01/22 12:11:19;;;;;;;6.93;2.05;;;7.30;74.70;;;;;;5131069;28;20051;-80
2021/01/22 12:13:45;;;;;;;10.07;2.92;;;7.40;74.70;;;;;;5130673;28;20054;-80
2021/01/22 12:16:11;;;;;;;14.57;2.80;;;7.40;76.30;;;;;;5131739;28;20035;-80
2021/01/22 12:18:37;;;;;;;13.68;2.70;;;7.40;76.50;;;;;;5130983;27;20039;-81
2021/01/22 12:21:06;;;;;;;9.55;2.58;;;7.50;75.90;;;;;;5134041;27;20066;-80
2021/01/22 12:23:32;;;;;;;11.68;2.30;;;7.50;76.30;;;;;;5135053;27;20063;-80
2021/01/22 12:25:58;;;;;;;10.10;2.35;;;7.40;74.80;;;;;;5135936;27;20047;-80
2021/01/22 12:28:23;;;;;;;14.40;3.05;;;7.50;74.90;;;;;;5135158;27;20488;-80
2021/01/22 12:30:49;;;;;;;14.20;2.92;;;7.30;76.90;;;;;;5133771;27;20047;-80
2021/01/22 12:33:15;;;;;;;10.98;3.08;;;7.30;77.10;;;;;;5134046;27;20039;-80
2021/01/22 12:35:42;;;;;;;11.35;2.80;;;7.40;75.90;;;;;;5135077;27;20046;-80
2021/01/22 12:38:08;;;;;;;14.35;2.60;;;7.40;76.80;;;;;;5135967;27;20501;-80
2021/01/22 12:40:33;;;;;;;11.68;2.92;;;7.50;77.60;;;;;;5133718;27;20043;-84
2021/01/22 12:43:00;;;;;;;11.88;2.40;;;7.60;75.30;;;;;;5134138;27;20432;-85
2021/01/22 12:45:26;;;;;;;11.80;3.28;;;7.60;75.30;;;;;;5134628;27;20126;-84
2021/01/22 12:47:53;;;;;;;8.68;2.90;;;7.60;75.60;;;;;;5135188;27;20487;-85
2021/01/22 12:50:19;;;;;;;12.95;4.05;;;7.60;75.60;;;;;;5135372;27;20099;-86
2021/01/22 12:52:46;;;;;;;7.07;2.00;;;7.60;74.80;;;;;;5134804;27;20047;-86
2021/01/22 12:55:12;;;;;;;12.10;2.40;;;7.50;75.20;;;;;;5135720;27;20050;-86
2021/01/22 12:57:38;;;;;;;13.23;2.38;;;7.50;74.70;;;;;;5133668;27;20059;-86
2021/01/22 13:00:06;;;;;;;8.43;2.63;;;7.40;73.70;;;;;;5135601;27;20047;-86